Time;durP1;ratioP1;P1;durP2;ratioP2;P2;SDS_P1;SDS_P2;PMS_P1;PMS_P2;Temp;Humidity;BMP_temperature;BMP_pressure;BME280_temperature;BME280_humidity;BME280_pressure;Samples;Min_cycle;Max_cycle;Signal;HPM_P1;HPM_P2
2021/12/11 00:02:10;;;;;;;16.17;10.85;;;-1.50;99.90;;;;;;4806330;29;20073;-85
2021/12/11 00:04:42;;;;;;;24.05;12.02;;;-1.40;99.90;;;;;;4790745;29;20122;-85
2021/12/11 00:07:14;;;;;;;24.17;12.82;;;-1.50;99.90;;;;;;4820501;29;20546;-85
2021/12/11 00:09:45;;;;;;;20.35;12.63;;;-1.50;99.90;;;;;;4792072;29;20050;-85
2021/12/11 00:12:30;;;;;;;19.05;11.20;;;-1.50;99.90;;;;;;4791559;29;20124;-85
2021/12/11 00:15:09;;;;;;;16.75;10.50;;;-1.50;99.90;;;;;;4806185;29;20048;-85
2021/12/11 00:17:35;;;;;;;21.20;12.35;;;-1.50;99.90;;;;;;4818563;29;20042;-85
2021/12/11 00:20:07;;;;;;;20.52;11.30;;;-1.50;99.90;;;;;;4806269;29;20445;-85
2021/12/11 00:22:33;;;;;;;20.23;13.48;;;-1.60;99.90;;;;;;4806794;29;20089;-85
2021/12/11 00:25:08;;;;;;;26.30;12.03;;;-1.10;99.90;;;;;;4819046;29;20099;-86
2021/12/11 00:27:40;;;;;;;20.55;12.32;;;-1.60;99.90;;;;;;4788598;29;20043;-85
2021/12/11 00:30:17;;;;;;;29.20;11.45;;;-1.30;99.90;;;;;;4804941;29;20055;-85
2021/12/11 00:32:43;;;;;;;18.05;9.27;;;-1.60;99.90;;;;;;4789024;29;20263;-85
2021/12/11 00:35:22;;;;;;;17.45;10.77;;;-1.70;99.90;;;;;;4818458;29;20035;-85
2021/12/11 00:37:48;;;;;;;16.83;10.30;;;-1.70;99.90;;;;;;4778973;29;20050;-85
2021/12/11 00:40:25;;;;;;;9.43;7.95;;;-1.60;99.90;;;;;;4790646;29;20043;-85
2021/12/11 00:42:56;;;;;;;16.80;9.60;;;-0.70;99.90;;;;;;4806478;29;20057;-85
2021/12/11 00:45:25;;;;;;;15.55;7.30;;;-0.80;99.90;;;;;;4828713;29;20049;-85
2021/12/11 00:47:54;;;;;;;12.10;8.25;;;-1.70;99.90;;;;;;4824403;29;20091;-85
2021/12/11 00:50:25;;;;;;;8.50;7.13;;;-0.90;99.90;;;;;;4794683;29;20098;-85
2021/12/11 00:53:17;;;;;;;15.23;8.45;;;-0.80;99.90;;;;;;4809029;29;20102;-85
2021/12/11 00:55:47;;;;;;;8.82;5.90;;;-0.90;99.90;;;;;;4784567;29;20073;-85
2021/12/11 00:58:28;;;;;;;9.82;6.15;;;-1.80;99.90;;;;;;4824001;29;20136;-85
2021/12/11 01:00:59;;;;;;;9.20;6.50;;;-1.80;99.90;;;;;;4806675;29;20078;-85
2021/12/11 01:03:36;;;;;;;9.93;6.18;;;-1.80;99.90;;;;;;4823839;29;20050;-85
2021/12/11 01:06:09;;;;;;;11.47;6.47;;;-1.80;99.90;;;;;;4823527;29;20060;-86
2021/12/11 01:08:42;;;;;;;7.32;5.07;;;-1.90;99.90;;;;;;4824247;29;20034;-85
2021/12/11 01:11:16;;;;;;;9.48;6.45;;;-1.80;99.90;;;;;;4820975;29;20506;-85
2021/12/11 01:13:54;;;;;;;8.65;4.55;;;-0.80;99.90;;;;;;4793501;29;20501;-85
2021/12/11 01:16:21;;;;;;;8.32;4.68;;;-1.10;99.90;;;;;;4808886;29;20054;-85
2021/12/11 01:18:55;;;;;;;9.27;5.43;;;-1.20;99.90;;;;;;4824211;29;20542;-85
2021/12/11 01:26:33;;;;;;;7.45;4.45;;;-2.00;99.90;;;;;;4824487;29;20061;-85
2021/12/11 01:29:00;;;;;;;11.80;5.28;;;-1.30;99.90;;;;;;4808488;29;20469;-87
2021/12/11 01:31:27;;;;;;;7.40;4.65;;;-2.00;99.90;;;;;;4824224;29;20078;-85
2021/12/11 01:33:55;;;;;;;9.05;5.10;;;-2.00;99.90;;;;;;4794207;29;20050;-86
2021/12/11 01:36:22;;;;;;;9.23;4.85;;;-2.00;99.90;;;;;;4806460;29;20590;-85
2021/12/11 01:38:53;;;;;;;;;;;-2.00;99.90;;;;;;4791770;29;20201;-86
2021/12/11 01:41:21;;;;;;;6.45;3.38;;;-1.10;99.90;;;;;;4806587;29;20273;-85
2021/12/11 01:43:50;;;;;;;8.02;6.38;;;-2.00;99.90;;;;;;4793596;29;20042;-85
2021/12/11 01:46:23;;;;;;;5.38;4.93;;;-2.00;99.90;;;;;;4807764;29;20108;-85
2021/12/11 01:48:58;;;;;;;10.68;6.10;;;-1.40;99.90;;;;;;4823270;29;20038;-85
2021/12/11 01:51:35;;;;;;;5.85;5.00;;;-1.60;99.90;;;;;;4822999;29;20068;-86
2021/12/11 01:54:24;;;;;;;5.70;4.65;;;-1.70;99.90;;;;;;4823724;29;20043;-86
2021/12/11 01:56:59;;;;;;;6.57;5.45;;;-2.10;99.90;;;;;;4808773;29;20092;-85
2021/12/11 01:59:32;;;;;;;11.85;6.70;;;-1.30;99.90;;;;;;4822780;29;20508;-85
2021/12/11 02:02:12;;;;;;;16.50;6.88;;;-2.10;99.90;;;;;;4819775;29;20050;-86
2021/12/11 02:04:43;;;;;;;10.80;6.05;;;-1.80;99.90;;;;;;4793110;29;20454;-86
2021/12/11 02:07:16;;;;;;;7.50;5.40;;;-2.10;99.90;;;;;;4822768;29;20051;-86
2021/12/11 02:09:50;;;;;;;13.70;4.78;;;-2.20;99.90;;;;;;4808489;29;20042;-86
2021/12/11 02:12:26;;;;;;;5.32;3.75;;;-2.20;99.90;;;;;;4798584;29;20098;-87
2021/12/11 02:14:56;;;;;;;5.85;4.05;;;-1.50;99.90;;;;;;4823454;29;20494;-85
2021/12/11 02:17:31;;;;;;;8.82;5.18;;;-1.60;99.90;;;;;;4821778;29;20623;-86
2021/12/11 02:19:59;;;;;;;5.25;3.78;;;-2.30;99.90;;;;;;4820755;29;20043;-86
2021/12/11 02:22:39;;;;;;;5.82;4.25;;;-1.60;99.90;;;;;;4804421;29;20135;-85
2021/12/11 02:25:09;;;;;;;5.75;4.30;;;-2.30;99.90;;;;;;4823357;29;20133;-86
2021/12/11 02:27:50;;;;;;;9.73;5.20;;;-2.00;99.90;;;;;;4834747;29;20390;-86
2021/12/11 02:30:34;;;;;;;13.43;4.20;;;-1.30;99.90;;;;;;4805320;29;20137;-86
2021/12/11 02:33:28;;;;;;;4.35;3.70;;;-2.30;99.90;;;;;;4805246;29;20042;-86
2021/12/11 02:35:57;;;;;;;4.15;3.40;;;-2.30;99.90;;;;;;4774543;29;20054;-86
2021/12/11 02:38:35;;;;;;;8.90;3.78;;;-2.20;99.90;;;;;;4799386;29;20497;-86
2021/12/11 02:41:01;;;;;;;9.25;3.75;;;-2.30;99.90;;;;;;4792672;29;20046;-86
2021/12/11 02:44:04;;;;;;;7.03;5.00;;;-1.50;99.90;;;;;;4806565;29;20061;-86
2021/12/11 02:46:33;;;;;;;5.72;4.25;;;-2.30;99.90;;;;;;4770690;29;20059;-85
2021/12/11 02:49:14;;;;;;;6.90;4.45;;;-1.60;99.90;;;;;;4822737;29;20057;-85
2021/12/11 02:51:50;;;;;;;5.85;4.30;;;-2.30;99.90;;;;;;4835715;29;20129;-86
2021/12/11 02:54:23;;;;;;;8.20;4.07;;;-1.70;99.90;;;;;;4807014;29;20050;-86
2021/12/11 02:57:01;;;;;;;6.70;4.70;;;-2.40;99.90;;;;;;4794421;29;20042;-86
2021/12/11 02:59:32;;;;;;;9.15;3.40;;;-2.40;99.90;;;;;;4791118;29;20077;-86
2021/12/11 03:02:10;;;;;;;6.15;3.80;;;-1.40;99.90;;;;;;4821862;29;20521;-86
2021/12/11 03:04:43;;;;;;;5.32;4.65;;;-1.70;99.90;;;;;;4788792;29;20132;-85
2021/12/11 03:07:13;;;;;;;8.57;4.50;;;-2.40;99.90;;;;;;4806770;29;20465;-86
2021/12/11 03:09:48;;;;;;;7.90;4.07;;;-1.70;99.90;;;;;;4803763;29;20483;-85
2021/12/11 03:12:16;;;;;;;8.00;3.58;;;-1.60;99.90;;;;;;4807807;29;20064;-86
2021/12/11 03:14:43;;;;;;;7.45;4.60;;;-2.40;99.90;;;;;;4792160;29;20056;-86
2021/12/11 03:17:09;;;;;;;5.53;4.03;;;-2.40;99.90;;;;;;4806683;29;20456;-87
2021/12/11 03:19:41;;;;;;;5.25;3.10;;;-2.40;99.90;;;;;;4788234;29;20133;-85
2021/12/11 03:22:12;;;;;;;9.75;5.30;;;-2.10;99.90;;;;;;4792366;29;20081;-86
2021/12/11 03:24:38;;;;;;;7.68;3.67;;;-1.20;99.90;;;;;;4795036;29;20055;-85
2021/12/11 03:27:04;;;;;;;5.05;2.92;;;-2.10;99.90;;;;;;4817975;29;20045;-86
2021/12/11 03:29:30;;;;;;;12.32;5.88;;;-2.50;99.90;;;;;;4790997;29;20498;-85
2021/12/11 03:31:56;;;;;;;5.33;4.03;;;-2.40;99.90;;;;;;4789291;29;20050;-85
2021/12/11 03:34:25;;;;;;;8.10;3.75;;;-1.40;99.90;;;;;;4821545;29;20046;-86
2021/12/11 03:36:52;;;;;;;6.88;4.97;;;-2.50;99.90;;;;;;4834589;29;20042;-86
2021/12/11 03:39:26;;;;;;;3.75;3.40;;;-2.50;99.90;;;;;;4806529;29;20042;-86
2021/12/11 03:41:54;;;;;;;9.52;6.07;;;-2.50;99.90;;;;;;4833242;29;20453;-86
2021/12/11 03:44:20;;;;;;;6.40;4.35;;;-2.50;99.90;;;;;;4821049;29;20043;-86
2021/12/11 03:46:51;;;;;;;5.28;4.80;;;-2.30;99.90;;;;;;4807135;29;20497;-86
2021/12/11 03:49:19;;;;;;;11.40;5.10;;;-2.40;99.90;;;;;;4806658;29;20102;-89
2021/12/11 03:51:48;;;;;;;7.72;4.22;;;-2.40;99.90;;;;;;4837094;29;20129;-86
2021/12/11 03:54:19;;;;;;;5.13;4.65;;;-1.80;99.90;;;;;;4790239;29;20114;-86
2021/12/11 03:56:45;;;;;;;10.35;5.72;;;-2.50;99.90;;;;;;4792107;29;20085;-86
2021/12/11 03:59:12;;;;;;;12.30;5.40;;;-1.70;99.90;;;;;;4779826;29;20078;-86
2021/12/11 04:01:43;;;;;;;7.80;5.03;;;-2.50;99.90;;;;;;4790721;29;20055;-86
2021/12/11 04:04:26;;;;;;;9.13;4.22;;;-2.50;99.90;;;;;;4788685;29;20428;-86
2021/12/11 04:06:53;;;;;;;9.88;4.95;;;-2.50;99.90;;;;;;4821544;29;20396;-86
2021/12/11 04:09:20;;;;;;;6.70;3.92;;;-2.30;99.90;;;;;;4791983;29;20042;-88
2021/12/11 04:11:47;;;;;;;5.72;5.05;;;-1.90;99.90;;;;;;4806467;29;20046;-88
2021/12/11 04:14:18;;;;;;;11.18;6.13;;;-2.50;99.90;;;;;;4793983;29;20054;-86
2021/12/11 04:16:45;;;;;;;5.75;4.60;;;-2.50;99.90;;;;;;4823040;29;20049;-86
2021/12/11 04:19:13;;;;;;;7.55;5.10;;;-2.20;99.90;;;;;;4810223;29;20077;-86
2021/12/11 04:21:41;;;;;;;6.28;5.75;;;-2.20;99.90;;;;;;4823699;29;20046;-86
2021/12/11 04:24:12;;;;;;;9.95;6.07;;;-2.60;99.90;;;;;;4809574;29;20050;-87
2021/12/11 04:26:40;;;;;;;9.93;6.47;;;-2.50;99.90;;;;;;4824643;29;20398;-86
2021/12/11 04:29:07;;;;;;;14.48;6.90;;;-1.90;99.90;;;;;;4824506;29;20474;-87
2021/12/11 04:31:35;;;;;;;13.07;6.63;;;-2.60;99.90;;;;;;4824544;29;20143;-86
2021/12/11 04:34:07;;;;;;;10.40;6.50;;;-1.80;99.90;;;;;;4824717;29;20109;-86
2021/12/11 04:36:43;;;;;;;10.38;6.10;;;-1.90;99.90;;;;;;4824128;29;20053;-86
2021/12/11 04:39:11;;;;;;;8.43;5.15;;;-1.30;99.90;;;;;;4824925;29;20497;-86
2021/12/11 04:41:52;;;;;;;7.78;6.75;;;-2.00;99.90;;;;;;4793803;29;20088;-86
2021/12/11 04:44:46;;;;;;;13.50;6.00;;;-1.80;99.90;;;;;;4824633;29;20046;-86
2021/12/11 04:47:28;;;;;;;11.32;4.43;;;-2.30;99.90;;;;;;4836991;29;20059;-86
2021/12/11 04:49:59;;;;;;;7.22;5.05;;;-1.60;99.90;;;;;;4794463;29;20498;-86
2021/12/11 04:52:45;;;;;;;10.65;7.15;;;-1.70;99.90;;;;;;4794332;29;20501;-89
2021/12/11 05:09:13;;;;;;;9.23;5.90;;;-1.50;99.90;;;;;;4821422;29;20481;-86
2021/12/11 05:11:52;;;;;;;7.82;5.90;;;-2.50;99.90;;;;;;4818566;29;20046;-87
2021/12/11 05:14:24;;;;;;;8.32;6.18;;;-1.50;99.90;;;;;;4824576;29;20046;-87
2021/12/11 05:16:54;;;;;;;5.85;5.43;;;-2.00;99.90;;;;;;4795967;29;20135;-86
2021/12/11 05:19:20;;;;;;;5.95;5.13;;;-1.80;99.90;;;;;;4824559;29;20125;-87
2021/12/11 05:21:46;;;;;;;7.70;5.23;;;-1.80;99.90;;;;;;4793497;29;20543;-87
2021/12/11 05:24:14;;;;;;;6.63;5.90;;;-1.60;99.90;;;;;;4790557;29;20788;-87
2021/12/11 05:26:40;;;;;;;6.78;5.47;;;-1.70;99.90;;;;;;4808676;29;20058;-87
2021/12/11 05:29:09;;;;;;;6.83;5.67;;;-1.40;99.90;;;;;;4793757;29;20072;-87
2021/12/11 05:31:35;;;;;;;7.47;4.95;;;-1.60;99.90;;;;;;4823759;29;20497;-87
2021/12/11 05:34:06;;;;;;;7.70;4.90;;;-1.60;99.90;;;;;;4821229;29;20051;-87
2021/12/11 05:36:32;;;;;;;9.77;6.97;;;-2.50;99.90;;;;;;4815228;29;20041;-87
2021/12/11 05:39:01;;;;;;;5.88;5.03;;;-2.10;99.90;;;;;;4823654;29;20504;-87
2021/12/11 05:41:28;;;;;;;10.85;6.80;;;-2.30;99.90;;;;;;4793681;29;20046;-87
2021/12/11 05:43:56;;;;;;;12.80;7.28;;;-2.00;99.90;;;;;;4793916;29;20207;-87
2021/12/11 05:46:22;;;;;;;7.82;6.05;;;-2.70;99.90;;;;;;4793107;29;20065;-87
2021/12/11 05:48:50;;;;;;;5.97;4.33;;;-1.80;99.90;;;;;;4789953;29;20538;-87
2021/12/11 05:51:22;;;;;;;7.00;4.40;;;-3.30;99.90;;;;;;4805954;29;20055;-87
2021/12/11 05:53:59;;;;;;;10.48;5.43;;;-1.80;99.90;;;;;;4805993;29;20061;-87
2021/12/11 05:56:25;;;;;;;10.23;8.07;;;-2.00;99.90;;;;;;4805594;29;20103;-87
2021/12/11 05:59:14;;;;;;;12.38;5.70;;;-2.80;99.90;;;;;;4809106;29;20042;-87
2021/12/11 06:02:14;;;;;;;12.05;4.88;;;-3.40;99.90;;;;;;4808129;29;20129;-87
2021/12/11 06:04:44;;;;;;;6.43;4.78;;;-3.60;99.90;;;;;;4791435;29;20129;-87
2021/12/11 06:07:12;;;;;;;8.85;5.88;;;-1.80;99.90;;;;;;4793274;29;20112;-87
2021/12/11 06:09:42;;;;;;;9.25;4.22;;;-3.50;99.90;;;;;;4821562;29;20122;-87
2021/12/11 06:12:11;;;;;;;7.57;3.45;;;-3.50;99.90;;;;;;4823442;29;20451;-87
2021/12/11 06:14:38;;;;;;;5.80;4.45;;;-2.80;99.90;;;;;;4793136;29;20101;-88
2021/12/11 06:17:10;;;;;;;5.57;3.97;;;-2.10;99.90;;;;;;4792852;29;20065;-87
2021/12/11 06:19:52;;;;;;;8.95;6.65;;;-2.80;99.90;;;;;;4822575;29;20061;-88
2021/12/11 06:22:26;;;;;;;8.65;4.68;;;-2.00;99.90;;;;;;4808110;29;20085;-87
2021/12/11 06:24:55;;;;;;;9.80;5.07;;;-2.10;99.90;;;;;;4819244;29;20047;-87
2021/12/11 06:27:21;;;;;;;6.50;5.22;;;-1.70;99.90;;;;;;4819706;29;20103;-87
2021/12/11 06:29:47;;;;;;;9.90;6.45;;;-2.00;99.90;;;;;;4808506;29;20125;-87
2021/12/11 06:32:17;;;;;;;4.80;4.30;;;-2.80;99.90;;;;;;4807488;29;20201;-87
2021/12/11 06:34:43;;;;;;;5.90;5.05;;;-2.20;99.90;;;;;;4807368;29;20046;-88
2021/12/11 06:37:16;;;;;;;6.93;4.23;;;-3.40;99.90;;;;;;4791992;29;20049;-87
2021/12/11 06:39:45;;;;;;;11.80;5.32;;;-2.10;99.90;;;;;;4806990;29;20399;-88
2021/12/11 06:42:11;;;;;;;7.93;4.53;;;-2.00;99.90;;;;;;4792656;29;20071;-87
2021/12/11 06:44:38;;;;;;;8.60;4.93;;;-2.80;99.90;;;;;;4822980;29;20038;-87
2021/12/11 06:47:14;;;;;;;8.35;4.03;;;-2.80;99.90;;;;;;4823249;29;20050;-87
2021/12/11 06:49:43;;;;;;;5.95;5.25;;;-2.80;99.90;;;;;;4791732;29;20038;-88
2021/12/11 06:52:18;;;;;;;5.32;3.53;;;-2.70;99.90;;;;;;4820773;29;20490;-87
2021/12/11 06:54:47;;;;;;;9.02;6.05;;;-2.80;99.90;;;;;;4792852;29;20038;-87
2021/12/11 06:57:18;;;;;;;5.97;4.53;;;-1.80;99.90;;;;;;4792595;29;20046;-87
2021/12/11 06:59:47;;;;;;;7.80;4.60;;;-3.50;99.90;;;;;;4806553;29;20062;-87
2021/12/11 07:02:16;;;;;;;6.35;5.72;;;-1.90;99.90;;;;;;4778027;29;20133;-88
2021/12/11 07:04:53;;;;;;;6.85;4.00;;;-2.30;99.90;;;;;;4820913;29;20490;-88
2021/12/11 07:07:25;;;;;;;11.07;5.53;;;-2.90;99.90;;;;;;4807506;29;20042;-87
2021/12/11 07:09:54;;;;;;;7.07;4.82;;;-3.00;99.90;;;;;;4822365;29;20050;-87
2021/12/11 07:12:22;;;;;;;7.80;4.78;;;-2.00;99.90;;;;;;4792390;29;20386;-91
2021/12/11 07:14:53;;;;;;;6.28;4.45;;;-2.40;99.90;;;;;;4790597;29;20078;-86
2021/12/11 07:17:20;;;;;;;8.30;4.28;;;-2.10;99.90;;;;;;4760558;29;20053;-86
2021/12/11 07:19:46;;;;;;;7.60;5.75;;;-2.40;99.90;;;;;;4774261;29;20505;-87
2021/12/11 07:22:14;;;;;;;7.72;4.65;;;-2.90;99.90;;;;;;4793588;29;20093;-86
2021/12/11 07:24:50;;;;;;;7.80;5.45;;;-2.90;99.90;;;;;;4832887;29;20100;-86
2021/12/11 07:27:18;;;;;;;8.00;5.22;;;-2.30;99.90;;;;;;4804596;29;20069;-83
2021/12/11 07:29:44;;;;;;;6.18;4.47;;;-3.80;99.90;;;;;;4835500;29;20069;-87
2021/12/11 07:32:11;;;;;;;6.15;5.50;;;-2.80;99.90;;;;;;4790776;29;20513;-85
2021/12/11 07:34:38;;;;;;;11.75;5.97;;;-2.10;99.90;;;;;;4823229;29;20042;-89
2021/12/11 07:37:07;;;;;;;14.77;5.35;;;-2.80;99.90;;;;;;4776311;29;20502;-88
2021/12/11 07:39:33;;;;;;;10.68;6.20;;;-2.20;99.90;;;;;;4791326;29;20053;-87
2021/12/11 07:41:59;;;;;;;6.43;5.13;;;-2.50;99.90;;;;;;4836245;29;20047;-85
2021/12/11 07:44:26;;;;;;;8.87;5.40;;;-2.10;99.90;;;;;;4822579;29;20046;-90
2021/12/11 07:46:57;;;;;;;4.82;4.45;;;-2.30;99.90;;;;;;4807276;29;20164;-93
2021/12/11 07:49:23;;;;;;;10.05;5.10;;;-2.80;99.90;;;;;;4801479;29;20045;-94
2021/12/11 07:51:50;;;;;;;6.22;4.90;;;-2.60;99.90;;;;;;4796678;29;20050;-92
2021/12/11 07:54:21;;;;;;;16.08;5.53;;;-2.40;99.90;;;;;;4809895;29;20413;-96
2021/12/11 07:56:54;;;;;;;9.40;4.35;;;-1.90;99.90;;;;;;4804457;29;20065;-88
2021/12/11 07:59:40;;;;;;;8.85;5.00;;;-2.30;99.90;;;;;;4807938;29;20506;-93
2021/12/11 08:02:13;;;;;;;6.10;4.72;;;-2.60;99.90;;;;;;4794435;29;20043;-91
2021/12/11 08:04:41;;;;;;;12.35;5.10;;;-1.90;99.90;;;;;;4823217;29;20050;-91
2021/12/11 08:07:07;;;;;;;16.98;5.18;;;-2.30;99.90;;;;;;4809494;29;20058;-89
2021/12/11 08:09:52;;;;;;;9.88;5.65;;;-2.40;99.90;;;;;;4807726;29;20502;-88
2021/12/11 08:12:24;;;;;;;10.38;6.35;;;-2.30;99.90;;;;;;4778337;29;20096;-91
2021/12/11 08:14:51;;;;;;;6.32;4.57;;;-2.00;99.90;;;;;;4821678;29;20057;-89
2021/12/11 08:17:20;;;;;;;;;;;-1.70;99.90;;;;;;4823908;29;20133;-94
2021/12/11 08:19:46;;;;;;;8.15;6.22;;;-1.70;99.90;;;;;;4809802;29;19973;-92
2021/12/11 08:22:14;;;;;;;17.00;6.27;;;-0.50;99.90;;;;;;4802489;29;20046;-96
2021/12/11 08:24:40;;;;;;;9.18;5.25;;;-2.40;99.90;;;;;;4810635;29;20062;-92
2021/12/11 08:27:15;;;;;;;14.60;5.95;;;-0.90;99.90;;;;;;4809076;29;20090;-94
2021/12/11 08:29:46;;;;;;;10.63;7.28;;;-0.80;99.90;;;;;;4825652;29;20574;-92
2021/12/11 08:32:25;;;;;;;;;;;;;;;;;;;;;
2021/12/11 08:34:52;;;;;;;13.43;7.30;;;-1.30;99.90;;;;;;4825947;29;20054;-88
2021/12/11 08:37:20;;;;;;;;;;;0.00;99.90;;;;;;4824247;29;20047;-91
2021/12/11 08:39:59;;;;;;;10.43;6.50;;;-0.80;99.90;;;;;;4831895;29;19976;-91
2021/12/11 08:42:36;;;;;;;12.80;5.90;;;-0.40;99.90;;;;;;4828673;29;20050;-92
2021/12/11 08:45:06;;;;;;;25.27;9.65;;;0.40;99.90;;;;;;4794554;29;20467;-86
2021/12/11 08:47:40;;;;;;;19.58;8.45;;;-0.10;99.90;;;;;;4822170;29;20046;-88
2021/12/11 08:50:11;;;;;;;10.52;7.03;;;0.10;99.90;;;;;;4805508;29;20053;-86
2021/12/11 08:52:41;;;;;;;13.65;8.00;;;0.30;99.90;;;;;;4802578;29;20047;-87
2021/12/11 08:55:22;;;;;;;10.43;8.02;;;0.50;99.90;;;;;;4811621;29;20074;-89
2021/12/11 08:57:52;;;;;;;15.70;8.93;;;1.70;99.90;;;;;;4823426;29;20054;-89
2021/12/11 09:00:55;;;;;;;19.23;8.55;;;1.00;99.90;;;;;;4789605;29;20042;-89
2021/12/11 09:03:38;;;;;;;13.98;9.25;;;1.30;99.90;;;;;;4806424;29;20062;-89
2021/12/11 09:06:12;;;;;;;12.70;8.35;;;1.70;99.90;;;;;;4796092;29;20586;-87
2021/12/11 09:08:54;;;;;;;13.85;9.45;;;1.60;99.90;;;;;;4808798;29;20077;-90
2021/12/11 09:11:37;;;;;;;18.25;9.70;;;1.80;99.90;;;;;;4807313;29;20050;-91
2021/12/11 09:14:11;;;;;;;15.93;8.98;;;1.80;99.90;;;;;;4814334;29;20088;-89
2021/12/11 09:17:01;;;;;;;14.27;8.93;;;1.90;99.90;;;;;;4809966;29;20050;-89
2021/12/11 09:19:44;;;;;;;23.00;10.13;;;1.20;99.90;;;;;;4823612;29;20068;-89
2021/12/11 09:22:31;;;;;;;15.63;9.55;;;1.90;99.90;;;;;;4821916;29;20069;-90
2021/12/11 09:25:19;;;;;;;17.00;9.57;;;2.80;99.90;;;;;;4822881;29;20147;-89
2021/12/11 09:27:58;;;;;;;19.30;10.80;;;1.80;99.90;;;;;;4807505;29;20061;-89
2021/12/11 09:30:31;;;;;;;24.55;10.98;;;1.90;99.90;;;;;;4822360;29;20141;-90
2021/12/11 09:33:05;;;;;;;18.23;10.40;;;1.90;99.90;;;;;;4834501;29;20103;-91
2021/12/11 09:35:35;;;;;;;22.20;11.88;;;1.90;99.90;;;;;;4824425;29;20053;-89
2021/12/11 09:38:09;;;;;;;19.63;11.07;;;2.00;99.90;;;;;;4822984;29;20379;-90
2021/12/11 09:40:34;;;;;;;19.00;11.05;;;1.70;99.90;;;;;;4807642;29;20118;-88
2021/12/11 09:43:02;;;;;;;23.90;11.73;;;1.80;99.90;;;;;;4824660;29;20113;-90
2021/12/11 09:45:41;;;;;;;21.55;12.20;;;2.00;99.90;;;;;;4833319;29;20054;-88
2021/12/11 09:48:17;;;;;;;22.73;12.88;;;2.10;99.90;;;;;;4792851;29;20497;-87
2021/12/11 09:51:00;;;;;;;23.83;12.40;;;2.20;99.90;;;;;;4792217;29;20102;-84
2021/12/11 09:53:37;;;;;;;20.60;11.43;;;2.30;99.90;;;;;;4791885;29;20058;-87
2021/12/11 09:56:12;;;;;;;15.25;11.07;;;2.60;99.90;;;;;;4792218;29;20521;-91
2021/12/11 09:58:41;;;;;;;18.45;11.85;;;2.40;99.90;;;;;;4792928;29;20051;-89
2021/12/11 10:01:22;;;;;;;23.50;13.25;;;2.50;99.90;;;;;;4831542;29;20046;-88
2021/12/11 10:04:03;;;;;;;20.15;11.40;;;2.60;99.90;;;;;;4791286;29;20340;-88
2021/12/11 10:07:12;;;;;;;20.90;12.05;;;2.60;99.90;;;;;;4834916;29;20062;-88
2021/12/11 10:09:49;;;;;;;15.50;11.27;;;2.50;99.90;;;;;;4833284;29;20050;-86
2021/12/11 10:12:19;;;;;;;15.95;11.18;;;2.80;99.90;;;;;;4808277;29;20054;-86
2021/12/11 10:14:55;;;;;;;19.08;10.60;;;2.80;99.90;;;;;;4792859;29;20089;-85
2021/12/11 10:17:29;;;;;;;16.90;10.45;;;2.90;99.90;;;;;;4791465;29;20050;-86
2021/12/11 10:20:00;;;;;;;17.60;11.70;;;3.10;99.90;;;;;;4823471;29;20051;-88
2021/12/11 10:22:49;;;;;;;15.30;11.43;;;3.20;99.90;;;;;;4837172;29;20054;-88
2021/12/11 10:25:20;;;;;;;16.38;10.38;;;3.50;99.90;;;;;;4798987;29;20085;-85
2021/12/11 10:27:46;;;;;;;14.80;11.85;;;3.70;99.90;;;;;;4818462;29;20126;-87
2021/12/11 10:30:18;;;;;;;12.43;10.23;;;4.20;99.90;;;;;;4792884;29;20062;-86
2021/12/11 10:32:44;;;;;;;14.05;10.77;;;4.00;99.90;;;;;;4807945;29;20426;-87
2021/12/11 10:35:17;;;;;;;15.13;10.02;;;4.00;99.90;;;;;;4823324;29;20509;-87
2021/12/11 10:37:43;;;;;;;17.45;11.20;;;4.30;99.90;;;;;;4823859;29;20099;-94
2021/12/11 10:40:51;;;;;;;;;;;;;;;;;;;;;
2021/12/11 10:43:27;;;;;;;13.45;11.00;;;4.40;99.90;;;;;;4787671;29;20310;-87
2021/12/11 10:45:57;;;;;;;15.65;10.23;;;4.70;99.90;;;;;;4818860;29;20065;-87
2021/12/11 10:48:32;;;;;;;18.58;11.35;;;4.90;99.90;;;;;;4791178;29;20256;-88
2021/12/11 10:51:12;;;;;;;13.90;10.10;;;5.20;99.90;;;;;;4806254;29;20146;-86
2021/12/11 10:53:42;;;;;;;15.40;10.18;;;5.60;99.90;;;;;;4791600;29;20513;-87
2021/12/11 10:56:09;;;;;;;12.35;10.10;;;5.70;99.90;;;;;;4792358;29;20069;-87
2021/12/11 10:58:45;;;;;;;15.55;10.40;;;5.90;99.90;;;;;;4807254;29;20106;-87
2021/12/11 11:01:25;;;;;;;15.45;10.57;;;6.10;99.90;;;;;;4805995;29;20417;-91
2021/12/11 11:03:58;;;;;;;14.27;11.55;;;6.00;99.90;;;;;;4805372;29;20050;-83
2021/12/11 11:06:27;;;;;;;15.63;10.80;;;6.50;99.90;;;;;;4806974;29;20073;-92
2021/12/11 11:09:04;;;;;;;16.25;11.20;;;6.70;99.90;;;;;;4822970;29;20047;-87
2021/12/11 11:11:32;;;;;;;13.65;10.32;;;6.80;99.90;;;;;;4805846;29;20046;-85
2021/12/11 11:14:01;;;;;;;20.52;11.40;;;6.90;99.90;;;;;;4821787;29;20049;-87
2021/12/11 11:16:30;;;;;;;20.17;11.27;;;6.80;99.90;;;;;;4789256;29;20055;-86
2021/12/11 11:18:56;;;;;;;15.73;10.25;;;7.20;99.90;;;;;;4778141;29;20058;-86
2021/12/11 11:21:33;;;;;;;18.48;10.68;;;7.20;99.90;;;;;;4788259;29;20089;-86
2021/12/11 11:24:03;;;;;;;15.70;10.63;;;7.40;99.90;;;;;;4819669;29;20387;-87
2021/12/11 11:26:33;;;;;;;13.38;10.13;;;7.60;99.90;;;;;;4820708;29;20069;-86
2021/12/11 11:29:00;;;;;;;16.27;10.65;;;7.20;99.90;;;;;;4806052;29;20050;-86
2021/12/11 11:31:36;;;;;;;15.68;10.07;;;7.90;99.90;;;;;;4827464;29;20117;-88
2021/12/11 11:34:08;;;;;;;16.58;10.55;;;8.00;99.90;;;;;;4830470;29;20046;-87
2021/12/11 11:36:34;;;;;;;12.93;10.10;;;8.00;99.90;;;;;;4818754;29;20088;-86
2021/12/11 11:39:10;;;;;;;15.40;10.98;;;8.10;99.90;;;;;;4819790;29;20399;-86
2021/12/11 11:41:58;;;;;;;15.05;10.43;;;8.30;99.90;;;;;;4811417;29;20076;-87
2021/12/11 11:44:25;;;;;;;;;;;8.50;99.90;;;;;;4821191;29;20088;-88
2021/12/11 11:46:52;;;;;;;16.98;10.68;;;8.60;99.90;;;;;;4789543;29;20300;-88
2021/12/11 11:49:19;;;;;;;14.15;10.32;;;8.70;99.90;;;;;;4790509;29;20078;-88
2021/12/11 11:51:50;;;;;;;;;;;8.70;99.90;;;;;;4821540;29;20054;-88
2021/12/11 11:54:22;;;;;;;12.73;10.02;;;8.60;99.90;;;;;;4821764;29;19929;-91
2021/12/11 11:57:08;;;;;;;13.95;9.48;;;8.40;99.90;;;;;;4823608;29;20203;-87
2021/12/11 11:59:39;;;;;;;13.93;10.07;;;8.20;99.90;;;;;;4820757;29;20129;-89
2021/12/11 12:02:13;;;;;;;15.07;11.05;;;7.50;99.90;;;;;;4820744;29;20080;-89
2021/12/11 12:04:39;;;;;;;16.27;10.63;;;7.20;99.90;;;;;;4820392;29;20119;-88
2021/12/11 12:07:10;;;;;;;14.32;10.00;;;7.70;99.90;;;;;;4798946;29;20051;-87
2021/12/11 12:09:50;;;;;;;14.85;9.90;;;7.80;99.90;;;;;;4799163;29;20125;-86
2021/12/11 12:12:16;;;;;;;17.67;10.43;;;7.80;99.90;;;;;;4773576;29;20120;-87
2021/12/11 12:14:45;;;;;;;15.05;10.23;;;7.80;99.90;;;;;;4801953;29;20055;-87
2021/12/11 12:17:14;;;;;;;15.13;10.07;;;7.80;99.90;;;;;;4815175;29;20141;-87
2021/12/11 12:19:40;;;;;;;15.43;9.82;;;8.00;99.90;;;;;;4799532;29;20112;-88
2021/12/11 12:22:10;;;;;;;14.15;9.15;;;7.20;99.90;;;;;;4801973;29;20126;-88
2021/12/11 12:24:44;;;;;;;15.43;9.95;;;7.00;99.90;;;;;;4790665;29;20055;-90
2021/12/11 12:27:16;;;;;;;16.55;9.77;;;6.70;99.90;;;;;;4798386;29;20511;-92
2021/12/11 12:29:46;;;;;;;15.55;9.57;;;6.50;99.90;;;;;;4805391;29;20042;-88
2021/12/11 12:32:16;;;;;;;12.80;10.60;;;5.80;99.90;;;;;;4787930;29;20122;-91
2021/12/11 12:34:44;;;;;;;15.07;10.05;;;6.00;99.90;;;;;;4808980;29;20059;-89
2021/12/11 12:37:14;;;;;;;15.93;10.98;;;5.80;99.90;;;;;;4792074;29;20042;-92
2021/12/11 12:39:43;;;;;;;15.50;10.35;;;5.60;99.90;;;;;;4806989;29;20057;-91
2021/12/11 12:42:32;;;;;;;14.18;9.68;;;6.00;99.90;;;;;;4807489;29;20055;-92
2021/12/11 12:45:03;;;;;;;15.40;10.70;;;5.30;99.90;;;;;;4808706;29;20521;-92
2021/12/11 12:47:35;;;;;;;17.05;11.48;;;5.20;99.90;;;;;;4791616;29;20514;-91
2021/12/11 12:50:17;;;;;;;15.20;10.55;;;5.10;99.90;;;;;;4807056;29;20415;-91
2021/12/11 12:52:45;;;;;;;18.50;11.20;;;5.10;99.90;;;;;;4822134;29;20115;-92
2021/12/11 12:55:42;;;;;;;15.43;11.93;;;5.00;99.90;;;;;;4791959;29;20093;-92
2021/12/11 12:58:16;;;;;;;18.20;11.35;;;4.90;99.90;;;;;;4807328;29;20054;-93
2021/12/11 13:00:48;;;;;;;15.93;10.85;;;4.80;99.90;;;;;;4806626;29;20070;-92
2021/12/11 13:03:18;;;;;;;20.63;11.32;;;4.80;99.90;;;;;;4792179;29;20050;-92
2021/12/11 13:05:48;;;;;;;20.25;11.00;;;4.80;99.90;;;;;;4799740;29;20062;-93
2021/12/11 13:08:31;;;;;;;18.50;12.80;;;4.80;99.90;;;;;;4810164;29;20054;-92
2021/12/11 13:11:07;;;;;;;18.83;11.65;;;5.40;99.90;;;;;;4825185;29;20055;-92
2021/12/11 13:13:38;;;;;;;21.03;10.97;;;4.80;99.90;;;;;;4825049;29;20058;-92
2021/12/11 13:16:25;;;;;;;19.90;12.35;;;4.90;99.90;;;;;;4810243;29;20081;-92
2021/12/11 13:18:58;;;;;;;17.77;11.45;;;4.10;99.90;;;;;;4794403;29;20129;-92
2021/12/11 13:21:27;;;;;;;20.05;12.60;;;4.90;99.90;;;;;;4840081;29;20050;-92
2021/12/11 13:23:55;;;;;;;18.88;11.52;;;4.80;99.90;;;;;;4824519;29;20054;-92
2021/12/11 13:26:25;;;;;;;18.73;11.55;;;4.80;99.90;;;;;;4824789;29;20054;-93
2021/12/11 13:28:56;;;;;;;19.35;11.07;;;4.90;99.90;;;;;;4810391;29;20410;-92
2021/12/11 13:31:29;;;;;;;18.45;10.55;;;5.00;99.90;;;;;;4825272;29;20058;-92
2021/12/11 13:33:56;;;;;;;16.70;11.45;;;4.90;99.90;;;;;;4824922;29;20046;-92